sensor_id;sensor_type;location;lat;lon;timestamp;P1;durP1;ratioP1;P2;durP2;ratioP2
15285;SDS011;7744;52.172;10.668;2022-08-19T00:00:26;10.38;;;9.38;;
15285;SDS011;7744;52.172;10.668;2022-08-19T00:02:52;10.90;;;9.88;;
15285;SDS011;7744;52.172;10.668;2022-08-19T00:05:19;10.27;;;9.38;;
15285;SDS011;7744;52.172;10.668;2022-08-19T00:07:45;11.07;;;10.00;;
15285;SDS011;7744;52.172;10.668;2022-08-19T00:10:12;9.75;;;8.88;;
15285;SDS011;7744;52.172;10.668;2022-08-19T00:12:39;10.57;;;9.15;;
15285;SDS011;7744;52.172;10.668;2022-08-19T00:15:06;11.45;;;9.25;;
15285;SDS011;7744;52.172;10.668;2022-08-19T00:17:36;10.50;;;9.50;;
15285;SDS011;7744;52.172;10.668;2022-08-19T00:20:03;10.63;;;8.93;;
15285;SDS011;7744;52.172;10.668;2022-08-19T00:22:29;10.45;;;9.40;;
15285;SDS011;7744;52.172;10.668;2022-08-19T00:24:56;10.23;;;9.18;;
15285;SDS011;7744;52.172;10.668;2022-08-19T00:27:21;10.45;;;9.38;;
15285;SDS011;7744;52.172;10.668;2022-08-19T00:29:47;10.32;;;9.30;;
15285;SDS011;7744;52.172;10.668;2022-08-19T00:32:13;9.63;;;8.60;;
15285;SDS011;7744;52.172;10.668;2022-08-19T00:34:38;9.35;;;8.45;;
15285;SDS011;7744;52.172;10.668;2022-08-19T00:37:04;11.05;;;9.32;;
15285;SDS011;7744;52.172;10.668;2022-08-19T00:39:29;10.00;;;9.10;;
15285;SDS011;7744;52.172;10.668;2022-08-19T00:41:55;10.32;;;9.05;;
15285;SDS011;7744;52.172;10.668;2022-08-19T00:44:24;10.05;;;9.13;;
15285;SDS011;7744;52.172;10.668;2022-08-19T00:46:53;9.00;;;8.15;;
15285;SDS011;7744;52.172;10.668;2022-08-19T00:51:57;10.32;;;9.30;;
15285;SDS011;7744;52.172;10.668;2022-08-19T00:54:31;9.52;;;8.63;;
15285;SDS011;7744;52.172;10.668;2022-08-19T00:56:58;9.57;;;8.65;;
15285;SDS011;7744;52.172;10.668;2022-08-19T00:59:26;13.43;;;9.48;;
15285;SDS011;7744;52.172;10.668;2022-08-19T01:01:53;9.82;;;8.90;;
15285;SDS011;7744;52.172;10.668;2022-08-19T01:04:19;10.45;;;9.38;;
15285;SDS011;7744;52.172;10.668;2022-08-19T01:06:44;10.68;;;9.40;;
15285;SDS011;7744;52.172;10.668;2022-08-19T01:09:10;10.23;;;9.25;;
15285;SDS011;7744;52.172;10.668;2022-08-19T01:11:36;11.27;;;9.82;;
15285;SDS011;7744;52.172;10.668;2022-08-19T01:14:06;10.23;;;9.27;;
15285;SDS011;7744;52.172;10.668;2022-08-19T01:16:33;10.00;;;9.15;;
15285;SDS011;7744;52.172;10.668;2022-08-19T01:19:00;11.07;;;9.98;;
15285;SDS011;7744;52.172;10.668;2022-08-19T01:21:49;9.85;;;8.85;;
15285;SDS011;7744;52.172;10.668;2022-08-19T01:24:25;9.75;;;8.68;;
15285;SDS011;7744;52.172;10.668;2022-08-19T01:26:51;10.20;;;9.20;;
15285;SDS011;7744;52.172;10.668;2022-08-19T01:29:16;10.02;;;9.02;;
15285;SDS011;7744;52.172;10.668;2022-08-19T01:31:42;9.25;;;8.35;;
15285;SDS011;7744;52.172;10.668;2022-08-19T01:34:08;10.48;;;9.48;;
15285;SDS011;7744;52.172;10.668;2022-08-19T01:36:39;9.35;;;8.45;;
15285;SDS011;7744;52.172;10.668;2022-08-19T01:39:10;9.93;;;8.98;;
15285;SDS011;7744;52.172;10.668;2022-08-19T01:41:38;9.48;;;8.57;;
15285;SDS011;7744;52.172;10.668;2022-08-19T01:44:05;13.23;;;9.20;;
15285;SDS011;7744;52.172;10.668;2022-08-19T01:46:32;9.70;;;8.70;;
15285;SDS011;7744;52.172;10.668;2022-08-19T01:48:58;10.43;;;9.35;;
15285;SDS011;7744;52.172;10.668;2022-08-19T01:51:25;10.27;;;9.15;;
15285;SDS011;7744;52.172;10.668;2022-08-19T01:53:51;10.18;;;9.18;;
15285;SDS011;7744;52.172;10.668;2022-08-19T01:56:17;9.45;;;8.48;;
15285;SDS011;7744;52.172;10.668;2022-08-19T01:58:48;10.75;;;9.00;;
15285;SDS011;7744;52.172;10.668;2022-08-19T02:01:18;9.35;;;8.55;;
15285;SDS011;7744;52.172;10.668;2022-08-19T02:03:44;10.85;;;9.50;;
15285;SDS011;7744;52.172;10.668;2022-08-19T02:06:10;8.90;;;8.00;;
15285;SDS011;7744;52.172;10.668;2022-08-19T02:08:37;9.60;;;8.63;;
15285;SDS011;7744;52.172;10.668;2022-08-19T02:11:04;10.13;;;9.05;;
15285;SDS011;7744;52.172;10.668;2022-08-19T02:13:30;9.43;;;8.48;;
15285;SDS011;7744;52.172;10.668;2022-08-19T02:15:56;9.85;;;8.85;;
15285;SDS011;7744;52.172;10.668;2022-08-19T02:18:22;10.07;;;8.60;;
15285;SDS011;7744;52.172;10.668;2022-08-19T02:20:48;10.07;;;9.13;;
15285;SDS011;7744;52.172;10.668;2022-08-19T02:23:14;10.30;;;9.23;;
15285;SDS011;7744;52.172;10.668;2022-08-19T02:25:42;9.18;;;8.27;;
15285;SDS011;7744;52.172;10.668;2022-08-19T02:28:09;10.23;;;8.75;;
15285;SDS011;7744;52.172;10.668;2022-08-19T02:30:35;8.40;;;7.65;;
15285;SDS011;7744;52.172;10.668;2022-08-19T02:33:00;9.60;;;8.63;;
15285;SDS011;7744;52.172;10.668;2022-08-19T02:35:26;9.10;;;8.20;;
15285;SDS011;7744;52.172;10.668;2022-08-19T02:37:51;9.38;;;8.52;;
15285;SDS011;7744;52.172;10.668;2022-08-19T02:40:35;9.23;;;8.32;;
15285;SDS011;7744;52.172;10.668;2022-08-19T02:43:02;9.48;;;8.23;;
15285;SDS011;7744;52.172;10.668;2022-08-19T02:45:32;8.82;;;7.95;;
15285;SDS011;7744;52.172;10.668;2022-08-19T02:48:02;9.52;;;8.50;;
15285;SDS011;7744;52.172;10.668;2022-08-19T02:50:29;9.50;;;8.38;;
15285;SDS011;7744;52.172;10.668;2022-08-19T02:52:54;10.25;;;8.40;;
15285;SDS011;7744;52.172;10.668;2022-08-19T02:55:20;9.07;;;8.15;;
15285;SDS011;7744;52.172;10.668;2022-08-19T02:57:46;9.05;;;8.15;;
15285;SDS011;7744;52.172;10.668;2022-08-19T03:00:12;11.45;;;7.93;;
15285;SDS011;7744;52.172;10.668;2022-08-19T03:02:39;9.02;;;8.13;;
15285;SDS011;7744;52.172;10.668;2022-08-19T03:05:05;9.07;;;8.38;;
15285;SDS011;7744;52.172;10.668;2022-08-19T03:07:32;10.88;;;8.68;;
15285;SDS011;7744;52.172;10.668;2022-08-19T03:09:58;8.98;;;8.05;;
15285;SDS011;7744;52.172;10.668;2022-08-19T03:12:23;10.10;;;8.23;;
15285;SDS011;7744;52.172;10.668;2022-08-19T03:14:49;9.60;;;8.63;;
15285;SDS011;7744;52.172;10.668;2022-08-19T03:17:15;9.10;;;8.18;;
15285;SDS011;7744;52.172;10.668;2022-08-19T03:19:41;11.73;;;8.55;;
15285;SDS011;7744;52.172;10.668;2022-08-19T03:22:08;9.10;;;8.20;;
15285;SDS011;7744;52.172;10.668;2022-08-19T03:24:34;9.15;;;8.35;;
15285;SDS011;7744;52.172;10.668;2022-08-19T03:27:00;10.48;;;9.32;;
15285;SDS011;7744;52.172;10.668;2022-08-19T03:29:26;9.57;;;8.30;;
15285;SDS011;7744;52.172;10.668;2022-08-19T03:31:53;9.50;;;8.30;;
15285;SDS011;7744;52.172;10.668;2022-08-19T03:34:24;9.07;;;8.18;;
15285;SDS011;7744;52.172;10.668;2022-08-19T03:36:52;12.38;;;8.20;;
15285;SDS011;7744;52.172;10.668;2022-08-19T03:39:23;9.82;;;8.35;;
15285;SDS011;7744;52.172;10.668;2022-08-19T03:41:50;10.27;;;8.50;;
15285;SDS011;7744;52.172;10.668;2022-08-19T03:44:18;8.15;;;7.18;;
15285;SDS011;7744;52.172;10.668;2022-08-19T03:46:49;7.60;;;6.80;;
15285;SDS011;7744;52.172;10.668;2022-08-19T03:49:17;9.02;;;8.13;;
15285;SDS011;7744;52.172;10.668;2022-08-19T03:51:45;9.02;;;8.07;;
15285;SDS011;7744;52.172;10.668;2022-08-19T03:54:13;8.65;;;7.80;;
15285;SDS011;7744;52.172;10.668;2022-08-19T03:56:40;8.68;;;7.80;;
15285;SDS011;7744;52.172;10.668;2022-08-19T03:59:11;9.27;;;8.45;;
15285;SDS011;7744;52.172;10.668;2022-08-19T04:01:41;9.68;;;8.27;;
15285;SDS011;7744;52.172;10.668;2022-08-19T04:04:07;10.13;;;8.57;;
15285;SDS011;7744;52.172;10.668;2022-08-19T04:06:34;10.07;;;8.23;;
15285;SDS011;7744;52.172;10.668;2022-08-19T04:09:03;9.95;;;9.05;;
15285;SDS011;7744;52.172;10.668;2022-08-19T04:11:33;10.23;;;8.73;;
15285;SDS011;7744;52.172;10.668;2022-08-19T04:14:00;12.27;;;9.18;;
15285;SDS011;7744;52.172;10.668;2022-08-19T04:16:28;10.32;;;8.27;;
15285;SDS011;7744;52.172;10.668;2022-08-19T04:18:55;10.95;;;8.95;;
15285;SDS011;7744;52.172;10.668;2022-08-19T04:21:24;11.27;;;8.30;;
15285;SDS011;7744;52.172;10.668;2022-08-19T04:23:51;9.43;;;8.52;;
15285;SDS011;7744;52.172;10.668;2022-08-19T04:26:19;9.95;;;8.95;;
15285;SDS011;7744;52.172;10.668;2022-08-19T04:28:47;11.38;;;9.07;;
15285;SDS011;7744;52.172;10.668;2022-08-19T04:31:14;11.07;;;9.18;;
15285;SDS011;7744;52.172;10.668;2022-08-19T04:33:41;9.57;;;8.60;;
15285;SDS011;7744;52.172;10.668;2022-08-19T04:36:07;10.52;;;9.23;;
15285;SDS011;7744;52.172;10.668;2022-08-19T04:38:40;9.63;;;8.68;;
15285;SDS011;7744;52.172;10.668;2022-08-19T04:41:05;9.30;;;8.35;;
15285;SDS011;7744;52.172;10.668;2022-08-19T04:43:49;10.90;;;8.90;;
15285;SDS011;7744;52.172;10.668;2022-08-19T04:46:15;12.60;;;8.73;;
15285;SDS011;7744;52.172;10.668;2022-08-19T04:48:42;12.02;;;8.50;;
15285;SDS011;7744;52.172;10.668;2022-08-19T04:51:09;11.38;;;8.32;;
15285;SDS011;7744;52.172;10.668;2022-08-19T04:53:38;10.60;;;8.88;;
15285;SDS011;7744;52.172;10.668;2022-08-19T04:56:07;9.68;;;8.63;;
15285;SDS011;7744;52.172;10.668;2022-08-19T04:58:32;10.25;;;8.90;;
15285;SDS011;7744;52.172;10.668;2022-08-19T05:00:59;11.55;;;8.88;;
15285;SDS011;7744;52.172;10.668;2022-08-19T05:03:27;9.77;;;8.77;;
15285;SDS011;7744;52.172;10.668;2022-08-19T05:05:58;10.32;;;8.90;;
15285;SDS011;7744;52.172;10.668;2022-08-19T05:08:29;11.35;;;10.15;;
15285;SDS011;7744;52.172;10.668;2022-08-19T05:10:55;11.00;;;9.90;;
15285;SDS011;7744;52.172;10.668;2022-08-19T05:13:22;10.43;;;9.45;;
15285;SDS011;7744;52.172;10.668;2022-08-19T05:15:55;12.23;;;10.63;;
15285;SDS011;7744;52.172;10.668;2022-08-19T05:18:21;11.20;;;10.10;;
15285;SDS011;7744;52.172;10.668;2022-08-19T05:21:10;11.98;;;9.75;;
15285;SDS011;7744;52.172;10.668;2022-08-19T05:23:55;11.15;;;10.05;;
15285;SDS011;7744;52.172;10.668;2022-08-19T05:26:21;11.48;;;10.18;;
15285;SDS011;7744;52.172;10.668;2022-08-19T05:28:46;11.00;;;9.90;;
15285;SDS011;7744;52.172;10.668;2022-08-19T05:31:12;10.77;;;9.68;;
15285;SDS011;7744;52.172;10.668;2022-08-19T05:33:37;11.05;;;9.77;;
15285;SDS011;7744;52.172;10.668;2022-08-19T05:36:04;10.52;;;9.50;;
15285;SDS011;7744;52.172;10.668;2022-08-19T05:38:32;10.50;;;9.48;;
15285;SDS011;7744;52.172;10.668;2022-08-19T05:40:58;9.77;;;8.77;;
15285;SDS011;7744;52.172;10.668;2022-08-19T05:43:24;10.32;;;8.88;;
15285;SDS011;7744;52.172;10.668;2022-08-19T05:45:50;9.80;;;8.80;;
15285;SDS011;7744;52.172;10.668;2022-08-19T05:48:15;10.73;;;8.60;;
15285;SDS011;7744;52.172;10.668;2022-08-19T05:50:45;10.40;;;9.40;;
15285;SDS011;7744;52.172;10.668;2022-08-19T05:53:11;9.98;;;8.98;;
15285;SDS011;7744;52.172;10.668;2022-08-19T05:55:37;9.55;;;8.50;;
15285;SDS011;7744;52.172;10.668;2022-08-19T05:58:03;9.68;;;8.15;;
15285;SDS011;7744;52.172;10.668;2022-08-19T06:00:32;9.93;;;8.90;;
15285;SDS011;7744;52.172;10.668;2022-08-19T06:02:58;9.02;;;8.23;;
15285;SDS011;7744;52.172;10.668;2022-08-19T06:05:31;9.25;;;8.35;;
15285;SDS011;7744;52.172;10.668;2022-08-19T06:07:57;11.05;;;9.95;;
15285;SDS011;7744;52.172;10.668;2022-08-19T06:10:25;11.23;;;8.82;;
15285;SDS011;7744;52.172;10.668;2022-08-19T06:12:51;9.63;;;7.95;;
15285;SDS011;7744;52.172;10.668;2022-08-19T06:15:17;8.65;;;7.47;;
15285;SDS011;7744;52.172;10.668;2022-08-19T06:17:43;8.70;;;7.88;;
15285;SDS011;7744;52.172;10.668;2022-08-19T06:20:12;9.60;;;8.57;;
15285;SDS011;7744;52.172;10.668;2022-08-19T06:22:43;8.68;;;7.78;;
15285;SDS011;7744;52.172;10.668;2022-08-19T06:25:11;8.85;;;7.95;;
15285;SDS011;7744;52.172;10.668;2022-08-19T06:27:38;9.38;;;8.48;;
15285;SDS011;7744;52.172;10.668;2022-08-19T06:30:04;9.57;;;8.52;;
15285;SDS011;7744;52.172;10.668;2022-08-19T06:32:30;9.38;;;8.40;;
15285;SDS011;7744;52.172;10.668;2022-08-19T06:34:56;8.48;;;7.70;;
15285;SDS011;7744;52.172;10.668;2022-08-19T06:37:22;8.38;;;7.57;;
15285;SDS011;7744;52.172;10.668;2022-08-19T06:39:48;9.48;;;7.85;;
15285;SDS011;7744;52.172;10.668;2022-08-19T06:42:14;9.45;;;8.48;;
15285;SDS011;7744;52.172;10.668;2022-08-19T06:44:42;9.88;;;8.88;;
15285;SDS011;7744;52.172;10.668;2022-08-19T06:47:11;9.23;;;8.20;;
15285;SDS011;7744;52.172;10.668;2022-08-19T06:49:38;9.88;;;8.88;;
15285;SDS011;7744;52.172;10.668;2022-08-19T06:52:04;10.35;;;8.60;;
15285;SDS011;7744;52.172;10.668;2022-08-19T06:54:30;8.80;;;7.88;;
15285;SDS011;7744;52.172;10.668;2022-08-19T06:57:00;8.00;;;7.22;;
15285;SDS011;7744;52.172;10.668;2022-08-19T06:59:27;8.93;;;7.45;;
15285;SDS011;7744;52.172;10.668;2022-08-19T07:01:56;9.73;;;8.23;;
15285;SDS011;7744;52.172;10.668;2022-08-19T07:04:24;9.00;;;7.50;;
15285;SDS011;7744;52.172;10.668;2022-08-19T07:06:56;9.07;;;7.20;;
15285;SDS011;7744;52.172;10.668;2022-08-19T07:09:24;7.90;;;7.10;;
15285;SDS011;7744;52.172;10.668;2022-08-19T07:11:50;8.02;;;7.22;;
15285;SDS011;7744;52.172;10.668;2022-08-19T07:14:18;7.63;;;6.90;;
15285;SDS011;7744;52.172;10.668;2022-08-19T07:16:48;8.95;;;7.38;;
15285;SDS011;7744;52.172;10.668;2022-08-19T07:19:15;8.00;;;7.20;;
15285;SDS011;7744;52.172;10.668;2022-08-19T07:21:42;6.90;;;6.25;;
15285;SDS011;7744;52.172;10.668;2022-08-19T07:24:08;7.63;;;6.82;;
15285;SDS011;7744;52.172;10.668;2022-08-19T07:26:37;9.30;;;6.85;;
15285;SDS011;7744;52.172;10.668;2022-08-19T07:29:05;7.30;;;6.55;;
15285;SDS011;7744;52.172;10.668;2022-08-19T07:31:31;11.48;;;6.70;;
15285;SDS011;7744;52.172;10.668;2022-08-19T07:34:01;7.50;;;6.80;;
15285;SDS011;7744;52.172;10.668;2022-08-19T07:36:28;7.50;;;6.00;;
15285;SDS011;7744;52.172;10.668;2022-08-19T07:38:57;7.55;;;6.60;;
15285;SDS011;7744;52.172;10.668;2022-08-19T07:41:26;7.53;;;6.47;;
15285;SDS011;7744;52.172;10.668;2022-08-19T07:43:53;6.55;;;5.47;;
15285;SDS011;7744;52.172;10.668;2022-08-19T07:46:20;6.32;;;5.30;;
15285;SDS011;7744;52.172;10.668;2022-08-19T07:48:46;5.68;;;5.03;;
15285;SDS011;7744;52.172;10.668;2022-08-19T07:51:14;7.22;;;5.43;;
15285;SDS011;7744;52.172;10.668;2022-08-19T07:53:42;6.18;;;5.30;;
15285;SDS011;7744;52.172;10.668;2022-08-19T07:56:09;5.57;;;4.97;;
15285;SDS011;7744;52.172;10.668;2022-08-19T07:58:37;6.72;;;5.93;;
15285;SDS011;7744;52.172;10.668;2022-08-19T08:01:05;7.18;;;6.47;;
15285;SDS011;7744;52.172;10.668;2022-08-19T08:03:32;6.03;;;5.10;;
15285;SDS011;7744;52.172;10.668;2022-08-19T08:06:16;6.78;;;5.72;;
15285;SDS011;7744;52.172;10.668;2022-08-19T08:09:01;5.93;;;5.43;;
15285;SDS011;7744;52.172;10.668;2022-08-19T08:11:44;6.70;;;6.07;;
15285;SDS011;7744;52.172;10.668;2022-08-19T08:14:50;6.63;;;5.82;;
15285;SDS011;7744;52.172;10.668;2022-08-19T08:17:19;6.90;;;6.22;;
15285;SDS011;7744;52.172;10.668;2022-08-19T08:19:46;6.43;;;5.82;;
15285;SDS011;7744;52.172;10.668;2022-08-19T08:22:15;5.97;;;5.43;;
15285;SDS011;7744;52.172;10.668;2022-08-19T08:25:02;6.35;;;5.75;;
15285;SDS011;7744;52.172;10.668;2022-08-19T08:27:29;7.35;;;5.82;;
15285;SDS011;7744;52.172;10.668;2022-08-19T08:29:55;7.50;;;5.30;;
15285;SDS011;7744;52.172;10.668;2022-08-19T08:32:21;6.25;;;5.65;;
15285;SDS011;7744;52.172;10.668;2022-08-19T08:34:47;5.93;;;4.95;;
15285;SDS011;7744;52.172;10.668;2022-08-19T08:37:13;6.88;;;6.07;;
15285;SDS011;7744;52.172;10.668;2022-08-19T08:39:39;8.05;;;5.35;;
15285;SDS011;7744;52.172;10.668;2022-08-19T08:42:11;6.13;;;5.53;;
15285;SDS011;7744;52.172;10.668;2022-08-19T08:45:00;6.25;;;5.50;;
15285;SDS011;7744;52.172;10.668;2022-08-19T08:47:32;5.60;;;4.40;;
15285;SDS011;7744;52.172;10.668;2022-08-19T08:50:04;6.28;;;5.47;;
15285;SDS011;7744;52.172;10.668;2022-08-19T08:52:36;7.50;;;5.00;;
15285;SDS011;7744;52.172;10.668;2022-08-19T08:55:10;5.47;;;5.00;;
15285;SDS011;7744;52.172;10.668;2022-08-19T09:02:47;5.88;;;5.38;;
15285;SDS011;7744;52.172;10.668;2022-08-19T09:05:13;5.72;;;4.70;;
15285;SDS011;7744;52.172;10.668;2022-08-19T09:10:37;5.60;;;5.03;;
15285;SDS011;7744;52.172;10.668;2022-08-19T09:15:42;4.57;;;4.18;;
15285;SDS011;7744;52.172;10.668;2022-08-19T09:18:18;4.70;;;4.20;;
15285;SDS011;7744;52.172;10.668;2022-08-19T09:20:45;3.97;;;3.67;;
15285;SDS011;7744;52.172;10.668;2022-08-19T09:23:12;4.70;;;4.30;;
15285;SDS011;7744;52.172;10.668;2022-08-19T09:25:37;4.72;;;4.20;;
15285;SDS011;7744;52.172;10.668;2022-08-19T09:28:05;4.32;;;3.92;;
15285;SDS011;7744;52.172;10.668;2022-08-19T09:30:36;4.20;;;3.83;;
15285;SDS011;7744;52.172;10.668;2022-08-19T09:33:05;4.93;;;4.05;;
15285;SDS011;7744;52.172;10.668;2022-08-19T09:35:32;4.45;;;4.05;;
15285;SDS011;7744;52.172;10.668;2022-08-19T09:37:58;5.35;;;4.32;;
15285;SDS011;7744;52.172;10.668;2022-08-19T09:40:26;5.05;;;3.95;;
15285;SDS011;7744;52.172;10.668;2022-08-19T09:42:53;5.68;;;4.50;;
15285;SDS011;7744;52.172;10.668;2022-08-19T09:45:21;4.07;;;3.75;;
15285;SDS011;7744;52.172;10.668;2022-08-19T09:47:46;4.85;;;4.43;;
15285;SDS011;7744;52.172;10.668;2022-08-19T09:50:14;4.30;;;3.90;;
15285;SDS011;7744;52.172;10.668;2022-08-19T09:52:39;4.80;;;4.40;;
15285;SDS011;7744;52.172;10.668;2022-08-19T09:55:07;5.20;;;4.65;;
15285;SDS011;7744;52.172;10.668;2022-08-19T09:57:34;4.80;;;4.38;;
15285;SDS011;7744;52.172;10.668;2022-08-19T10:00:00;4.93;;;4.25;;
15285;SDS011;7744;52.172;10.668;2022-08-19T10:02:27;4.57;;;4.18;;
15285;SDS011;7744;52.172;10.668;2022-08-19T10:04:56;5.60;;;4.88;;
15285;SDS011;7744;52.172;10.668;2022-08-19T10:07:40;4.68;;;4.30;;
15285;SDS011;7744;52.172;10.668;2022-08-19T10:10:07;5.90;;;5.10;;
15285;SDS011;7744;52.172;10.668;2022-08-19T10:12:34;4.93;;;4.50;;
15285;SDS011;7744;52.172;10.668;2022-08-19T10:15:00;5.30;;;4.80;;
15285;SDS011;7744;52.172;10.668;2022-08-19T10:17:26;5.63;;;5.03;;
15285;SDS011;7744;52.172;10.668;2022-08-19T10:19:52;7.95;;;5.00;;
15285;SDS011;7744;52.172;10.668;2022-08-19T10:22:18;5.72;;;4.43;;
15285;SDS011;7744;52.172;10.668;2022-08-19T10:24:45;5.30;;;4.70;;
15285;SDS011;7744;52.172;10.668;2022-08-19T10:27:11;5.00;;;4.50;;
15285;SDS011;7744;52.172;10.668;2022-08-19T10:29:38;5.35;;;4.95;;
15285;SDS011;7744;52.172;10.668;2022-08-19T10:32:04;5.20;;;4.70;;
15285;SDS011;7744;52.172;10.668;2022-08-19T10:34:33;5.25;;;4.55;;
15285;SDS011;7744;52.172;10.668;2022-08-19T10:37:01;5.50;;;4.90;;
15285;SDS011;7744;52.172;10.668;2022-08-19T10:39:30;5.28;;;4.78;;
15285;SDS011;7744;52.172;10.668;2022-08-19T10:42:04;5.53;;;5.13;;
15285;SDS011;7744;52.172;10.668;2022-08-19T10:44:31;5.45;;;5.05;;
15285;SDS011;7744;52.172;10.668;2022-08-19T10:46:57;5.53;;;5.00;;
15285;SDS011;7744;52.172;10.668;2022-08-19T10:49:23;5.72;;;5.18;;
15285;SDS011;7744;52.172;10.668;2022-08-19T10:51:49;5.60;;;5.10;;
15285;SDS011;7744;52.172;10.668;2022-08-19T10:54:33;5.65;;;4.50;;
15285;SDS011;7744;52.172;10.668;2022-08-19T10:57:18;5.07;;;4.20;;
15285;SDS011;7744;52.172;10.668;2022-08-19T10:59:43;4.95;;;4.45;;
15285;SDS011;7744;52.172;10.668;2022-08-19T11:02:09;4.57;;;4.22;;
15285;SDS011;7744;52.172;10.668;2022-08-19T11:04:37;4.80;;;4.30;;
15285;SDS011;7744;52.172;10.668;2022-08-19T11:07:03;5.00;;;4.60;;
15285;SDS011;7744;52.172;10.668;2022-08-19T11:09:30;4.97;;;4.57;;
15285;SDS011;7744;52.172;10.668;2022-08-19T11:11:56;5.25;;;4.75;;
15285;SDS011;7744;52.172;10.668;2022-08-19T11:14:22;4.82;;;4.43;;
15285;SDS011;7744;52.172;10.668;2022-08-19T11:16:50;5.95;;;4.50;;
15285;SDS011;7744;52.172;10.668;2022-08-19T11:19:18;5.75;;;5.25;;
15285;SDS011;7744;52.172;10.668;2022-08-19T11:21:45;5.40;;;4.90;;
15285;SDS011;7744;52.172;10.668;2022-08-19T11:24:16;5.55;;;5.07;;
15285;SDS011;7744;52.172;10.668;2022-08-19T11:26:45;6.05;;;5.45;;
15285;SDS011;7744;52.172;10.668;2022-08-19T11:29:13;5.22;;;4.82;;
15285;SDS011;7744;52.172;10.668;2022-08-19T11:31:40;5.25;;;4.82;;
15285;SDS011;7744;52.172;10.668;2022-08-19T11:34:09;5.05;;;4.65;;
15285;SDS011;7744;52.172;10.668;2022-08-19T11:36:38;5.07;;;4.68;;
15285;SDS011;7744;52.172;10.668;2022-08-19T11:39:06;5.10;;;4.57;;
15285;SDS011;7744;52.172;10.668;2022-08-19T11:41:36;5.00;;;4.60;;
15285;SDS011;7744;52.172;10.668;2022-08-19T11:44:02;4.90;;;4.43;;
15285;SDS011;7744;52.172;10.668;2022-08-19T11:46:29;5.47;;;4.97;;
15285;SDS011;7744;52.172;10.668;2022-08-19T11:48:56;6.80;;;5.28;;
15285;SDS011;7744;52.172;10.668;2022-08-19T11:51:24;4.32;;;4.03;;
15285;SDS011;7744;52.172;10.668;2022-08-19T11:53:51;4.43;;;3.88;;
15285;SDS011;7744;52.172;10.668;2022-08-19T11:56:20;4.35;;;4.05;;
15285;SDS011;7744;52.172;10.668;2022-08-19T11:58:46;5.00;;;4.47;;
15285;SDS011;7744;52.172;10.668;2022-08-19T12:01:14;5.53;;;4.82;;
15285;SDS011;7744;52.172;10.668;2022-08-19T12:03:41;4.82;;;4.32;;
15285;SDS011;7744;52.172;10.668;2022-08-19T12:06:09;4.70;;;4.30;;
15285;SDS011;7744;52.172;10.668;2022-08-19T12:08:38;5.28;;;4.78;;
15285;SDS011;7744;52.172;10.668;2022-08-19T12:11:04;7.38;;;4.53;;
15285;SDS011;7744;52.172;10.668;2022-08-19T12:13:32;4.40;;;4.10;;
15285;SDS011;7744;52.172;10.668;2022-08-19T12:15:59;5.07;;;4.55;;
15285;SDS011;7744;52.172;10.668;2022-08-19T12:18:25;4.32;;;3.92;;
15285;SDS011;7744;52.172;10.668;2022-08-19T12:20:52;6.50;;;5.90;;
15285;SDS011;7744;52.172;10.668;2022-08-19T12:23:19;7.85;;;5.82;;
15285;SDS011;7744;52.172;10.668;2022-08-19T12:25:46;6.47;;;4.85;;
15285;SDS011;7744;52.172;10.668;2022-08-19T12:28:17;5.60;;;5.10;;
15285;SDS011;7744;52.172;10.668;2022-08-19T12:30:43;6.10;;;5.55;;
15285;SDS011;7744;52.172;10.668;2022-08-19T12:33:09;4.90;;;4.47;;
15285;SDS011;7744;52.172;10.668;2022-08-19T12:35:35;10.93;;;5.88;;
15285;SDS011;7744;52.172;10.668;2022-08-19T12:38:04;16.02;;;5.43;;
15285;SDS011;7744;52.172;10.668;2022-08-19T12:40:30;6.05;;;4.32;;
15285;SDS011;7744;52.172;10.668;2022-08-19T12:42:55;9.80;;;4.90;;
15285;SDS011;7744;52.172;10.668;2022-08-19T12:45:21;5.53;;;4.88;;
15285;SDS011;7744;52.172;10.668;2022-08-19T12:47:47;5.15;;;4.63;;
15285;SDS011;7744;52.172;10.668;2022-08-19T12:50:13;5.68;;;4.40;;
15285;SDS011;7744;52.172;10.668;2022-08-19T12:52:38;5.13;;;4.72;;
15285;SDS011;7744;52.172;10.668;2022-08-19T12:55:07;7.43;;;4.68;;
15285;SDS011;7744;52.172;10.668;2022-08-19T12:57:33;5.30;;;4.45;;
15285;SDS011;7744;52.172;10.668;2022-08-19T13:00:02;5.93;;;4.13;;
15285;SDS011;7744;52.172;10.668;2022-08-19T13:02:41;4.97;;;3.92;;
15285;SDS011;7744;52.172;10.668;2022-08-19T13:05:10;4.95;;;4.30;;
15285;SDS011;7744;52.172;10.668;2022-08-19T13:07:39;6.20;;;5.15;;
15285;SDS011;7744;52.172;10.668;2022-08-19T13:10:06;5.93;;;5.00;;
15285;SDS011;7744;52.172;10.668;2022-08-19T13:12:33;6.72;;;4.82;;
15285;SDS011;7744;52.172;10.668;2022-08-19T13:14:59;4.90;;;4.38;;
15285;SDS011;7744;52.172;10.668;2022-08-19T13:17:25;6.57;;;5.47;;
15285;SDS011;7744;52.172;10.668;2022-08-19T13:19:51;5.18;;;4.78;;
15285;SDS011;7744;52.172;10.668;2022-08-19T13:22:17;4.95;;;4.55;;
15285;SDS011;7744;52.172;10.668;2022-08-19T13:24:43;5.45;;;4.95;;
15285;SDS011;7744;52.172;10.668;2022-08-19T13:27:09;4.90;;;3.92;;
15285;SDS011;7744;52.172;10.668;2022-08-19T13:29:34;5.05;;;4.60;;
15285;SDS011;7744;52.172;10.668;2022-08-19T13:32:18;4.13;;;3.78;;
15285;SDS011;7744;52.172;10.668;2022-08-19T13:35:03;4.75;;;4.40;;
15285;SDS011;7744;52.172;10.668;2022-08-19T13:37:29;4.80;;;4.20;;
15285;SDS011;7744;52.172;10.668;2022-08-19T13:40:07;5.03;;;4.60;;
15285;SDS011;7744;52.172;10.668;2022-08-19T13:42:43;4.47;;;4.05;;
15285;SDS011;7744;52.172;10.668;2022-08-19T13:45:11;5.05;;;4.65;;
15285;SDS011;7744;52.172;10.668;2022-08-19T13:47:37;4.82;;;4.07;;
15285;SDS011;7744;52.172;10.668;2022-08-19T13:50:08;5.78;;;4.68;;
15285;SDS011;7744;52.172;10.668;2022-08-19T13:52:35;4.03;;;3.63;;
15285;SDS011;7744;52.172;10.668;2022-08-19T13:55:01;3.80;;;3.50;;
15285;SDS011;7744;52.172;10.668;2022-08-19T13:57:29;4.85;;;4.45;;
15285;SDS011;7744;52.172;10.668;2022-08-19T13:59:55;4.57;;;4.18;;
15285;SDS011;7744;52.172;10.668;2022-08-19T14:02:22;4.50;;;4.20;;
15285;SDS011;7744;52.172;10.668;2022-08-19T14:04:48;4.60;;;4.30;;
15285;SDS011;7744;52.172;10.668;2022-08-19T14:07:13;5.57;;;4.32;;
15285;SDS011;7744;52.172;10.668;2022-08-19T14:09:39;4.60;;;4.25;;
15285;SDS011;7744;52.172;10.668;2022-08-19T14:12:05;4.25;;;3.95;;
15285;SDS011;7744;52.172;10.668;2022-08-19T14:14:30;4.05;;;3.75;;
15285;SDS011;7744;52.172;10.668;2022-08-19T14:16:56;3.97;;;3.58;;
15285;SDS011;7744;52.172;10.668;2022-08-19T14:19:22;4.35;;;3.92;;
15285;SDS011;7744;52.172;10.668;2022-08-19T14:21:47;3.90;;;3.60;;
15285;SDS011;7744;52.172;10.668;2022-08-19T14:24:13;4.10;;;3.78;;
15285;SDS011;7744;52.172;10.668;2022-08-19T14:26:38;4.10;;;3.80;;
15285;SDS011;7744;52.172;10.668;2022-08-19T14:29:04;4.40;;;4.00;;
15285;SDS011;7744;52.172;10.668;2022-08-19T14:31:30;4.25;;;3.90;;
15285;SDS011;7744;52.172;10.668;2022-08-19T14:33:55;4.80;;;3.90;;
15285;SDS011;7744;52.172;10.668;2022-08-19T14:36:21;4.28;;;3.97;;
15285;SDS011;7744;52.172;10.668;2022-08-19T14:38:47;4.40;;;4.00;;
15285;SDS011;7744;52.172;10.668;2022-08-19T14:41:15;4.38;;;4.07;;
15285;SDS011;7744;52.172;10.668;2022-08-19T14:43:49;4.43;;;4.13;;
15285;SDS011;7744;52.172;10.668;2022-08-19T14:46:18;4.03;;;3.58;;
15285;SDS011;7744;52.172;10.668;2022-08-19T14:48:45;4.38;;;3.75;;
15285;SDS011;7744;52.172;10.668;2022-08-19T14:51:11;4.30;;;3.92;;
15285;SDS011;7744;52.172;10.668;2022-08-19T14:53:37;4.07;;;3.78;;
15285;SDS011;7744;52.172;10.668;2022-08-19T14:56:07;3.92;;;3.63;;
15285;SDS011;7744;52.172;10.668;2022-08-19T14:58:34;5.35;;;4.05;;
15285;SDS011;7744;52.172;10.668;2022-08-19T15:01:00;4.00;;;3.70;;